sensor_id;sensor_type;location;lat;lon;timestamp;temperature;humidity
24468;DHT22;12634;50.852;5.676;2023-06-22T00:01:45;18.40;99.90
24468;DHT22;12634;50.852;5.676;2023-06-22T00:04:12;18.20;99.90
24468;DHT22;12634;50.852;5.676;2023-06-22T00:06:39;18.10;99.90
24468;DHT22;12634;50.852;5.676;2023-06-22T00:09:08;18.20;99.90
24468;DHT22;12634;50.852;5.676;2023-06-22T00:11:36;18.10;99.90
24468;DHT22;12634;50.852;5.676;2023-06-22T00:14:03;18.10;99.90
24468;DHT22;12634;50.852;5.676;2023-06-22T00:16:31;18.00;99.90
24468;DHT22;12634;50.852;5.676;2023-06-22T00:18:59;18.00;99.90
24468;DHT22;12634;50.852;5.676;2023-06-22T00:21:28;18.00;99.90
24468;DHT22;12634;50.852;5.676;2023-06-22T00:23:55;17.90;99.90
24468;DHT22;12634;50.852;5.676;2023-06-22T00:26:24;17.90;99.90
24468;DHT22;12634;50.852;5.676;2023-06-22T00:28:51;18.10;99.90
24468;DHT22;12634;50.852;5.676;2023-06-22T00:31:18;18.10;99.90
24468;DHT22;12634;50.852;5.676;2023-06-22T00:33:45;18.20;99.90
24468;DHT22;12634;50.852;5.676;2023-06-22T00:36:13;18.30;99.90
24468;DHT22;12634;50.852;5.676;2023-06-22T00:38:41;18.40;99.90
24468;DHT22;12634;50.852;5.676;2023-06-22T00:41:09;18.40;99.90
24468;DHT22;12634;50.852;5.676;2023-06-22T00:43:37;18.40;99.90
24468;DHT22;12634;50.852;5.676;2023-06-22T00:46:04;18.40;99.90
24468;DHT22;12634;50.852;5.676;2023-06-22T00:48:32;18.40;99.90
24468;DHT22;12634;50.852;5.676;2023-06-22T00:50:59;18.40;99.90
24468;DHT22;12634;50.852;5.676;2023-06-22T00:53:26;18.60;99.90
24468;DHT22;12634;50.852;5.676;2023-06-22T00:55:53;18.60;99.90
24468;DHT22;12634;50.852;5.676;2023-06-22T00:58:21;18.70;99.90
24468;DHT22;12634;50.852;5.676;2023-06-22T01:00:52;18.80;99.90
24468;DHT22;12634;50.852;5.676;2023-06-22T01:03:20;18.80;99.90
24468;DHT22;12634;50.852;5.676;2023-06-22T01:05:48;18.60;99.90
24468;DHT22;12634;50.852;5.676;2023-06-22T01:08:24;18.70;99.90
24468;DHT22;12634;50.852;5.676;2023-06-22T01:10:58;18.80;99.90
24468;DHT22;12634;50.852;5.676;2023-06-22T01:13:36;18.80;99.90
24468;DHT22;12634;50.852;5.676;2023-06-22T01:16:10;18.70;99.90
24468;DHT22;12634;50.852;5.676;2023-06-22T01:18:42;18.70;99.90
24468;DHT22;12634;50.852;5.676;2023-06-22T01:21:13;18.60;99.90
24468;DHT22;12634;50.852;5.676;2023-06-22T01:23:53;18.50;99.90
24468;DHT22;12634;50.852;5.676;2023-06-22T01:26:33;18.50;99.90
24468;DHT22;12634;50.852;5.676;2023-06-22T01:29:04;18.50;99.90
24468;DHT22;12634;50.852;5.676;2023-06-22T01:31:34;18.50;99.90
24468;DHT22;12634;50.852;5.676;2023-06-22T01:34:03;18.50;99.90
24468;DHT22;12634;50.852;5.676;2023-06-22T01:36:33;18.50;99.90
24468;DHT22;12634;50.852;5.676;2023-06-22T01:39:02;18.50;99.90
24468;DHT22;12634;50.852;5.676;2023-06-22T01:41:32;18.40;99.90
24468;DHT22;12634;50.852;5.676;2023-06-22T01:44:00;18.40;99.90
24468;DHT22;12634;50.852;5.676;2023-06-22T01:46:30;18.50;99.90
24468;DHT22;12634;50.852;5.676;2023-06-22T01:48:57;18.60;99.90
24468;DHT22;12634;50.852;5.676;2023-06-22T01:51:24;18.60;99.90
24468;DHT22;12634;50.852;5.676;2023-06-22T01:53:52;18.60;99.90
24468;DHT22;12634;50.852;5.676;2023-06-22T01:56:19;18.60;99.90
24468;DHT22;12634;50.852;5.676;2023-06-22T01:58:50;18.70;99.90
24468;DHT22;12634;50.852;5.676;2023-06-22T02:01:24;18.80;99.90
24468;DHT22;12634;50.852;5.676;2023-06-22T02:04:03;18.80;99.90
24468;DHT22;12634;50.852;5.676;2023-06-22T02:06:36;18.70;99.90
24468;DHT22;12634;50.852;5.676;2023-06-22T02:09:08;18.70;99.90
24468;DHT22;12634;50.852;5.676;2023-06-22T02:11:37;18.60;99.90
24468;DHT22;12634;50.852;5.676;2023-06-22T02:14:07;18.50;99.90
24468;DHT22;12634;50.852;5.676;2023-06-22T02:16:35;18.50;99.90
24468;DHT22;12634;50.852;5.676;2023-06-22T02:19:05;18.60;99.90
24468;DHT22;12634;50.852;5.676;2023-06-22T02:21:32;18.50;99.90
24468;DHT22;12634;50.852;5.676;2023-06-22T02:23:59;18.50;99.90
24468;DHT22;12634;50.852;5.676;2023-06-22T02:26:26;18.50;99.90
24468;DHT22;12634;50.852;5.676;2023-06-22T02:28:54;18.40;99.90
24468;DHT22;12634;50.852;5.676;2023-06-22T02:31:21;18.50;99.90
24468;DHT22;12634;50.852;5.676;2023-06-22T02:33:57;18.50;99.90
24468;DHT22;12634;50.852;5.676;2023-06-22T02:36:26;18.50;99.90
24468;DHT22;12634;50.852;5.676;2023-06-22T02:38:56;18.50;99.90
24468;DHT22;12634;50.852;5.676;2023-06-22T02:41:26;18.40;99.90
24468;DHT22;12634;50.852;5.676;2023-06-22T02:43:54;18.40;99.90
24468;DHT22;12634;50.852;5.676;2023-06-22T02:46:21;18.40;99.90
24468;DHT22;12634;50.852;5.676;2023-06-22T02:48:48;18.30;99.90
24468;DHT22;12634;50.852;5.676;2023-06-22T02:51:15;18.40;99.90
24468;DHT22;12634;50.852;5.676;2023-06-22T02:53:44;18.50;99.90
24468;DHT22;12634;50.852;5.676;2023-06-22T02:56:11;18.50;99.90
24468;DHT22;12634;50.852;5.676;2023-06-22T02:58:38;18.40;99.90
24468;DHT22;12634;50.852;5.676;2023-06-22T03:01:06;18.30;99.90
24468;DHT22;12634;50.852;5.676;2023-06-22T03:03:33;18.30;99.90
24468;DHT22;12634;50.852;5.676;2023-06-22T03:06:00;18.30;99.90
24468;DHT22;12634;50.852;5.676;2023-06-22T03:08:28;18.20;99.90
24468;DHT22;12634;50.852;5.676;2023-06-22T03:10:56;18.20;99.90
24468;DHT22;12634;50.852;5.676;2023-06-22T03:13:24;18.20;99.90
24468;DHT22;12634;50.852;5.676;2023-06-22T03:15:51;18.20;99.90
24468;DHT22;12634;50.852;5.676;2023-06-22T03:18:18;18.20;99.90
24468;DHT22;12634;50.852;5.676;2023-06-22T03:20:48;18.10;99.90
24468;DHT22;12634;50.852;5.676;2023-06-22T03:23:15;18.10;99.90
24468;DHT22;12634;50.852;5.676;2023-06-22T03:25:42;18.20;99.90
24468;DHT22;12634;50.852;5.676;2023-06-22T03:28:12;18.30;99.90
24468;DHT22;12634;50.852;5.676;2023-06-22T03:30:39;18.30;99.90
24468;DHT22;12634;50.852;5.676;2023-06-22T03:33:06;18.40;99.90
24468;DHT22;12634;50.852;5.676;2023-06-22T03:35:33;18.50;99.90
24468;DHT22;12634;50.852;5.676;2023-06-22T03:38:00;18.50;99.90
24468;DHT22;12634;50.852;5.676;2023-06-22T03:40:27;18.60;99.90
24468;DHT22;12634;50.852;5.676;2023-06-22T03:42:55;18.60;99.90
24468;DHT22;12634;50.852;5.676;2023-06-22T03:45:23;18.50;99.90
24468;DHT22;12634;50.852;5.676;2023-06-22T03:47:51;18.60;99.90
24468;DHT22;12634;50.852;5.676;2023-06-22T03:50:19;18.60;99.90
24468;DHT22;12634;50.852;5.676;2023-06-22T03:52:47;18.80;99.90
24468;DHT22;12634;50.852;5.676;2023-06-22T03:55:14;18.90;99.90
24468;DHT22;12634;50.852;5.676;2023-06-22T03:57:41;18.80;99.90
24468;DHT22;12634;50.852;5.676;2023-06-22T04:00:09;18.80;99.90
24468;DHT22;12634;50.852;5.676;2023-06-22T04:02:38;18.70;99.90
24468;DHT22;12634;50.852;5.676;2023-06-22T04:05:06;18.80;99.90
24468;DHT22;12634;50.852;5.676;2023-06-22T04:07:33;18.80;99.90
24468;DHT22;12634;50.852;5.676;2023-06-22T04:10:03;18.70;99.90
24468;DHT22;12634;50.852;5.676;2023-06-22T04:12:30;18.30;99.90
24468;DHT22;12634;50.852;5.676;2023-06-22T04:14:57;18.00;99.90
24468;DHT22;12634;50.852;5.676;2023-06-22T04:17:24;17.90;99.90
24468;DHT22;12634;50.852;5.676;2023-06-22T04:19:53;17.80;99.90
24468;DHT22;12634;50.852;5.676;2023-06-22T04:22:20;17.70;99.90
24468;DHT22;12634;50.852;5.676;2023-06-22T04:24:48;17.90;99.90
24468;DHT22;12634;50.852;5.676;2023-06-22T04:27:18;17.90;99.90
24468;DHT22;12634;50.852;5.676;2023-06-22T04:29:48;17.90;99.90
24468;DHT22;12634;50.852;5.676;2023-06-22T04:32:17;17.90;99.90
24468;DHT22;12634;50.852;5.676;2023-06-22T04:34:44;18.00;99.90
24468;DHT22;12634;50.852;5.676;2023-06-22T04:37:13;18.00;99.90
24468;DHT22;12634;50.852;5.676;2023-06-22T04:39:41;18.10;99.90
24468;DHT22;12634;50.852;5.676;2023-06-22T04:42:09;18.20;99.90
24468;DHT22;12634;50.852;5.676;2023-06-22T04:44:36;18.20;99.90
24468;DHT22;12634;50.852;5.676;2023-06-22T04:47:03;18.20;99.90
24468;DHT22;12634;50.852;5.676;2023-06-22T04:49:34;18.20;99.90
24468;DHT22;12634;50.852;5.676;2023-06-22T04:52:04;18.20;99.90
24468;DHT22;12634;50.852;5.676;2023-06-22T04:54:34;18.20;99.90
24468;DHT22;12634;50.852;5.676;2023-06-22T04:57:02;18.20;99.90
24468;DHT22;12634;50.852;5.676;2023-06-22T04:59:31;18.20;99.90
24468;DHT22;12634;50.852;5.676;2023-06-22T05:02:00;18.20;99.90
24468;DHT22;12634;50.852;5.676;2023-06-22T05:04:30;18.30;99.90
24468;DHT22;12634;50.852;5.676;2023-06-22T05:06:58;18.20;99.90
24468;DHT22;12634;50.852;5.676;2023-06-22T05:09:26;18.30;99.90
24468;DHT22;12634;50.852;5.676;2023-06-22T05:11:54;18.30;99.90
24468;DHT22;12634;50.852;5.676;2023-06-22T05:14:22;18.40;99.90
24468;DHT22;12634;50.852;5.676;2023-06-22T05:16:49;18.50;99.90
24468;DHT22;12634;50.852;5.676;2023-06-22T05:19:17;18.40;99.90
24468;DHT22;12634;50.852;5.676;2023-06-22T05:21:45;18.40;99.90
24468;DHT22;12634;50.852;5.676;2023-06-22T05:24:12;18.50;99.90
24468;DHT22;12634;50.852;5.676;2023-06-22T05:26:39;18.50;99.90
24468;DHT22;12634;50.852;5.676;2023-06-22T05:29:08;18.60;99.90
24468;DHT22;12634;50.852;5.676;2023-06-22T05:31:35;18.50;99.90
24468;DHT22;12634;50.852;5.676;2023-06-22T05:34:02;18.50;99.90
24468;DHT22;12634;50.852;5.676;2023-06-22T05:36:29;18.60;99.90
24468;DHT22;12634;50.852;5.676;2023-06-22T05:38:57;18.60;99.90
24468;DHT22;12634;50.852;5.676;2023-06-22T05:41:24;18.60;99.90
24468;DHT22;12634;50.852;5.676;2023-06-22T05:43:52;18.70;99.90
24468;DHT22;12634;50.852;5.676;2023-06-22T05:46:20;18.80;99.90
24468;DHT22;12634;50.852;5.676;2023-06-22T05:48:47;18.70;99.90
24468;DHT22;12634;50.852;5.676;2023-06-22T05:51:15;18.80;99.90
24468;DHT22;12634;50.852;5.676;2023-06-22T05:53:42;18.80;99.90
24468;DHT22;12634;50.852;5.676;2023-06-22T05:56:10;18.90;99.90
24468;DHT22;12634;50.852;5.676;2023-06-22T05:58:37;18.90;99.90
24468;DHT22;12634;50.852;5.676;2023-06-22T06:01:04;19.00;99.90
24468;DHT22;12634;50.852;5.676;2023-06-22T06:03:33;19.10;99.90
24468;DHT22;12634;50.852;5.676;2023-06-22T06:06:00;19.10;99.90
24468;DHT22;12634;50.852;5.676;2023-06-22T06:08:28;19.10;99.90
24468;DHT22;12634;50.852;5.676;2023-06-22T06:10:55;19.10;99.90
24468;DHT22;12634;50.852;5.676;2023-06-22T06:13:23;19.20;99.90
24468;DHT22;12634;50.852;5.676;2023-06-22T06:15:50;19.30;99.90
24468;DHT22;12634;50.852;5.676;2023-06-22T06:18:20;19.40;99.90
24468;DHT22;12634;50.852;5.676;2023-06-22T06:20:49;19.60;99.90
24468;DHT22;12634;50.852;5.676;2023-06-22T06:23:16;19.60;99.90
24468;DHT22;12634;50.852;5.676;2023-06-22T06:25:43;19.70;99.90
24468;DHT22;12634;50.852;5.676;2023-06-22T06:28:10;19.80;99.90
24468;DHT22;12634;50.852;5.676;2023-06-22T06:30:38;20.00;99.90
24468;DHT22;12634;50.852;5.676;2023-06-22T06:33:05;20.10;99.90
24468;DHT22;12634;50.852;5.676;2023-06-22T06:35:34;20.30;99.90
24468;DHT22;12634;50.852;5.676;2023-06-22T06:38:03;20.50;99.90
24468;DHT22;12634;50.852;5.676;2023-06-22T06:40:30;20.70;99.90
24468;DHT22;12634;50.852;5.676;2023-06-22T06:42:57;21.10;99.90
24468;DHT22;12634;50.852;5.676;2023-06-22T06:45:25;21.30;99.90
24468;DHT22;12634;50.852;5.676;2023-06-22T06:47:54;21.90;99.90
24468;DHT22;12634;50.852;5.676;2023-06-22T06:50:21;22.30;99.90
24468;DHT22;12634;50.852;5.676;2023-06-22T06:52:48;22.40;99.90
24468;DHT22;12634;50.852;5.676;2023-06-22T06:55:18;22.20;99.90
24468;DHT22;12634;50.852;5.676;2023-06-22T06:57:46;22.30;99.90
24468;DHT22;12634;50.852;5.676;2023-06-22T07:00:15;22.50;99.90
24468;DHT22;12634;50.852;5.676;2023-06-22T07:02:43;23.10;99.90
24468;DHT22;12634;50.852;5.676;2023-06-22T07:05:12;24.00;99.90
24468;DHT22;12634;50.852;5.676;2023-06-22T07:07:39;25.00;99.90
24468;DHT22;12634;50.852;5.676;2023-06-22T07:10:07;25.20;99.90
24468;DHT22;12634;50.852;5.676;2023-06-22T07:12:36;25.20;99.90
24468;DHT22;12634;50.852;5.676;2023-06-22T07:15:05;24.50;99.90
24468;DHT22;12634;50.852;5.676;2023-06-22T07:17:33;24.10;99.90
24468;DHT22;12634;50.852;5.676;2023-06-22T07:20:02;24.40;99.90
24468;DHT22;12634;50.852;5.676;2023-06-22T07:22:33;24.10;99.90
24468;DHT22;12634;50.852;5.676;2023-06-22T07:25:00;23.60;99.90
24468;DHT22;12634;50.852;5.676;2023-06-22T07:27:35;23.10;99.90
24468;DHT22;12634;50.852;5.676;2023-06-22T07:30:06;22.80;99.90
24468;DHT22;12634;50.852;5.676;2023-06-22T07:32:34;22.70;99.90
24468;DHT22;12634;50.852;5.676;2023-06-22T07:35:01;22.60;99.90
24468;DHT22;12634;50.852;5.676;2023-06-22T07:37:29;22.90;99.90
24468;DHT22;12634;50.852;5.676;2023-06-22T07:39:56;23.50;99.90
24468;DHT22;12634;50.852;5.676;2023-06-22T07:42:24;24.10;99.90
24468;DHT22;12634;50.852;5.676;2023-06-22T07:44:53;24.30;99.90
24468;DHT22;12634;50.852;5.676;2023-06-22T07:47:21;25.10;99.90
24468;DHT22;12634;50.852;5.676;2023-06-22T07:49:51;25.50;99.90
24468;DHT22;12634;50.852;5.676;2023-06-22T07:52:20;25.40;99.90
24468;DHT22;12634;50.852;5.676;2023-06-22T07:54:47;25.20;99.90
24468;DHT22;12634;50.852;5.676;2023-06-22T07:57:15;25.20;99.90
24468;DHT22;12634;50.852;5.676;2023-06-22T07:59:42;25.30;99.90
24468;DHT22;12634;50.852;5.676;2023-06-22T08:02:11;25.30;99.90
24468;DHT22;12634;50.852;5.676;2023-06-22T08:04:38;25.80;99.90
24468;DHT22;12634;50.852;5.676;2023-06-22T08:07:07;25.80;99.90
24468;DHT22;12634;50.852;5.676;2023-06-22T08:09:35;26.00;99.90
24468;DHT22;12634;50.852;5.676;2023-06-22T08:12:03;25.50;99.90
24468;DHT22;12634;50.852;5.676;2023-06-22T08:14:30;25.30;99.90
24468;DHT22;12634;50.852;5.676;2023-06-22T08:16:57;25.60;99.90
24468;DHT22;12634;50.852;5.676;2023-06-22T08:19:26;26.40;99.90
24468;DHT22;12634;50.852;5.676;2023-06-22T08:21:53;26.20;99.90
24468;DHT22;12634;50.852;5.676;2023-06-22T08:24:21;26.10;99.90
24468;DHT22;12634;50.852;5.676;2023-06-22T08:26:51;26.00;99.90
24468;DHT22;12634;50.852;5.676;2023-06-22T08:29:18;25.90;99.90
24468;DHT22;12634;50.852;5.676;2023-06-22T08:31:45;25.90;99.90
24468;DHT22;12634;50.852;5.676;2023-06-22T08:34:13;25.80;99.90
24468;DHT22;12634;50.852;5.676;2023-06-22T08:36:41;25.50;99.90
24468;DHT22;12634;50.852;5.676;2023-06-22T08:39:09;25.70;99.90
24468;DHT22;12634;50.852;5.676;2023-06-22T08:41:36;26.50;99.90
24468;DHT22;12634;50.852;5.676;2023-06-22T08:44:04;27.20;99.90
24468;DHT22;12634;50.852;5.676;2023-06-22T08:46:31;28.10;99.90
24468;DHT22;12634;50.852;5.676;2023-06-22T08:48:59;28.20;99.90
24468;DHT22;12634;50.852;5.676;2023-06-22T08:51:26;27.90;99.90
24468;DHT22;12634;50.852;5.676;2023-06-22T08:53:55;27.30;99.90
24468;DHT22;12634;50.852;5.676;2023-06-22T08:56:23;26.80;99.90
24468;DHT22;12634;50.852;5.676;2023-06-22T08:58:50;26.90;99.90
24468;DHT22;12634;50.852;5.676;2023-06-22T09:01:17;26.60;99.90
24468;DHT22;12634;50.852;5.676;2023-06-22T09:03:45;25.90;99.90
24468;DHT22;12634;50.852;5.676;2023-06-22T09:06:19;25.80;99.90
24468;DHT22;12634;50.852;5.676;2023-06-22T09:08:47;25.70;99.90
24468;DHT22;12634;50.852;5.676;2023-06-22T09:11:16;25.60;99.90
24468;DHT22;12634;50.852;5.676;2023-06-22T09:13:43;25.50;99.90
24468;DHT22;12634;50.852;5.676;2023-06-22T09:16:12;25.50;99.90
24468;DHT22;12634;50.852;5.676;2023-06-22T09:18:39;25.40;99.90
24468;DHT22;12634;50.852;5.676;2023-06-22T09:21:06;25.30;99.90
24468;DHT22;12634;50.852;5.676;2023-06-22T09:23:34;25.20;99.90
24468;DHT22;12634;50.852;5.676;2023-06-22T09:26:01;24.90;99.90
24468;DHT22;12634;50.852;5.676;2023-06-22T09:28:33;24.80;99.90
24468;DHT22;12634;50.852;5.676;2023-06-22T09:31:00;24.70;99.90
24468;DHT22;12634;50.852;5.676;2023-06-22T09:33:27;24.60;99.90
24468;DHT22;12634;50.852;5.676;2023-06-22T09:35:54;24.50;99.90
24468;DHT22;12634;50.852;5.676;2023-06-22T09:38:22;24.40;99.90
24468;DHT22;12634;50.852;5.676;2023-06-22T09:40:49;24.30;99.90
24468;DHT22;12634;50.852;5.676;2023-06-22T09:43:17;24.30;99.90
24468;DHT22;12634;50.852;5.676;2023-06-22T09:45:45;24.20;99.90
24468;DHT22;12634;50.852;5.676;2023-06-22T09:48:12;23.90;99.90
24468;DHT22;12634;50.852;5.676;2023-06-22T09:50:40;23.40;99.90
24468;DHT22;12634;50.852;5.676;2023-06-22T09:53:07;23.20;99.90
24468;DHT22;12634;50.852;5.676;2023-06-22T09:55:34;23.00;99.90
24468;DHT22;12634;50.852;5.676;2023-06-22T09:58:01;23.00;99.90
24468;DHT22;12634;50.852;5.676;2023-06-22T10:00:29;23.00;99.90
24468;DHT22;12634;50.852;5.676;2023-06-22T10:02:57;23.00;99.90
24468;DHT22;12634;50.852;5.676;2023-06-22T10:05:24;22.80;99.90
24468;DHT22;12634;50.852;5.676;2023-06-22T10:07:52;22.60;99.90
24468;DHT22;12634;50.852;5.676;2023-06-22T10:10:19;22.20;99.90
24468;DHT22;12634;50.852;5.676;2023-06-22T10:12:47;22.00;99.90
24468;DHT22;12634;50.852;5.676;2023-06-22T10:15:15;21.80;99.90
24468;DHT22;12634;50.852;5.676;2023-06-22T10:17:42;21.70;99.90
24468;DHT22;12634;50.852;5.676;2023-06-22T10:20:11;21.50;99.90
24468;DHT22;12634;50.852;5.676;2023-06-22T10:22:39;21.40;99.90
24468;DHT22;12634;50.852;5.676;2023-06-22T10:25:07;21.40;99.90
24468;DHT22;12634;50.852;5.676;2023-06-22T10:27:35;21.20;99.90
24468;DHT22;12634;50.852;5.676;2023-06-22T10:30:06;21.10;99.90
24468;DHT22;12634;50.852;5.676;2023-06-22T10:32:34;20.90;99.90
24468;DHT22;12634;50.852;5.676;2023-06-22T10:35:02;21.00;99.90
24468;DHT22;12634;50.852;5.676;2023-06-22T10:37:30;21.00;99.90
24468;DHT22;12634;50.852;5.676;2023-06-22T10:39:58;21.10;99.90
24468;DHT22;12634;50.852;5.676;2023-06-22T10:42:25;21.20;99.90
24468;DHT22;12634;50.852;5.676;2023-06-22T10:44:52;21.60;99.90
24468;DHT22;12634;50.852;5.676;2023-06-22T10:47:19;21.80;99.90
24468;DHT22;12634;50.852;5.676;2023-06-22T10:49:46;22.20;99.90
24468;DHT22;12634;50.852;5.676;2023-06-22T10:52:14;22.50;99.90
24468;DHT22;12634;50.852;5.676;2023-06-22T10:54:42;22.90;99.90
24468;DHT22;12634;50.852;5.676;2023-06-22T10:57:09;23.20;99.90
24468;DHT22;12634;50.852;5.676;2023-06-22T10:59:37;23.30;99.90
24468;DHT22;12634;50.852;5.676;2023-06-22T11:02:04;23.70;99.90
24468;DHT22;12634;50.852;5.676;2023-06-22T11:04:31;24.30;99.90
24468;DHT22;12634;50.852;5.676;2023-06-22T11:06:59;24.20;99.90
24468;DHT22;12634;50.852;5.676;2023-06-22T11:09:26;24.00;99.90
24468;DHT22;12634;50.852;5.676;2023-06-22T11:11:55;24.00;99.90
24468;DHT22;12634;50.852;5.676;2023-06-22T11:14:24;23.70;99.90
24468;DHT22;12634;50.852;5.676;2023-06-22T11:16:52;23.80;99.90
24468;DHT22;12634;50.852;5.676;2023-06-22T11:19:19;23.90;99.90
24468;DHT22;12634;50.852;5.676;2023-06-22T11:21:46;23.90;99.90
24468;DHT22;12634;50.852;5.676;2023-06-22T11:24:14;23.80;99.90
24468;DHT22;12634;50.852;5.676;2023-06-22T11:26:41;23.70;99.90
24468;DHT22;12634;50.852;5.676;2023-06-22T11:29:10;23.80;99.90
24468;DHT22;12634;50.852;5.676;2023-06-22T11:31:37;23.90;99.90
24468;DHT22;12634;50.852;5.676;2023-06-22T11:34:05;23.80;99.90
24468;DHT22;12634;50.852;5.676;2023-06-22T11:36:32;24.00;99.90
24468;DHT22;12634;50.852;5.676;2023-06-22T11:39:01;24.30;99.90
24468;DHT22;12634;50.852;5.676;2023-06-22T11:41:28;24.20;99.90
24468;DHT22;12634;50.852;5.676;2023-06-22T11:43:55;23.80;99.90
24468;DHT22;12634;50.852;5.676;2023-06-22T11:46:24;23.60;99.90
24468;DHT22;12634;50.852;5.676;2023-06-22T11:48:51;23.40;99.90
24468;DHT22;12634;50.852;5.676;2023-06-22T11:51:18;23.10;99.90
24468;DHT22;12634;50.852;5.676;2023-06-22T11:53:45;23.00;99.90
24468;DHT22;12634;50.852;5.676;2023-06-22T11:56:12;22.90;99.90
24468;DHT22;12634;50.852;5.676;2023-06-22T11:58:40;22.60;99.90
24468;DHT22;12634;50.852;5.676;2023-06-22T12:01:07;22.30;99.90
24468;DHT22;12634;50.852;5.676;2023-06-22T12:03:35;22.30;99.90
24468;DHT22;12634;50.852;5.676;2023-06-22T12:06:02;22.10;99.90
24468;DHT22;12634;50.852;5.676;2023-06-22T12:08:30;21.80;99.90
24468;DHT22;12634;50.852;5.676;2023-06-22T12:10:57;21.40;99.90
24468;DHT22;12634;50.852;5.676;2023-06-22T12:13:24;21.30;99.90
24468;DHT22;12634;50.852;5.676;2023-06-22T12:15:52;21.20;99.90
24468;DHT22;12634;50.852;5.676;2023-06-22T12:18:19;21.30;99.90
24468;DHT22;12634;50.852;5.676;2023-06-22T12:20:48;21.60;99.90
24468;DHT22;12634;50.852;5.676;2023-06-22T12:23:16;21.80;99.90
24468;DHT22;12634;50.852;5.676;2023-06-22T12:25:45;21.80;99.90
24468;DHT22;12634;50.852;5.676;2023-06-22T12:28:12;21.70;99.90
24468;DHT22;12634;50.852;5.676;2023-06-22T12:30:39;21.50;99.90
24468;DHT22;12634;50.852;5.676;2023-06-22T12:33:07;21.40;99.90
24468;DHT22;12634;50.852;5.676;2023-06-22T12:35:34;21.30;99.90
24468;DHT22;12634;50.852;5.676;2023-06-22T12:38:03;21.40;99.90
24468;DHT22;12634;50.852;5.676;2023-06-22T12:40:32;21.50;99.90
24468;DHT22;12634;50.852;5.676;2023-06-22T12:43:00;21.50;99.90
24468;DHT22;12634;50.852;5.676;2023-06-22T12:45:28;21.60;99.90
24468;DHT22;12634;50.852;5.676;2023-06-22T12:47:59;21.60;99.90
24468;DHT22;12634;50.852;5.676;2023-06-22T12:50:26;21.60;99.90
24468;DHT22;12634;50.852;5.676;2023-06-22T12:52:53;21.50;99.90
24468;DHT22;12634;50.852;5.676;2023-06-22T12:55:22;21.40;99.90
24468;DHT22;12634;50.852;5.676;2023-06-22T12:57:49;21.50;99.90
24468;DHT22;12634;50.852;5.676;2023-06-22T13:00:17;21.30;99.90
24468;DHT22;12634;50.852;5.676;2023-06-22T13:02:45;21.20;99.90
24468;DHT22;12634;50.852;5.676;2023-06-22T13:05:12;21.20;99.90
24468;DHT22;12634;50.852;5.676;2023-06-22T13:07:40;21.20;99.90
24468;DHT22;12634;50.852;5.676;2023-06-22T13:10:08;21.10;99.90
24468;DHT22;12634;50.852;5.676;2023-06-22T13:12:37;21.20;99.90
24468;DHT22;12634;50.852;5.676;2023-06-22T13:15:06;21.20;99.90
24468;DHT22;12634;50.852;5.676;2023-06-22T13:17:34;21.20;99.90
24468;DHT22;12634;50.852;5.676;2023-06-22T13:20:01;21.20;99.90
24468;DHT22;12634;50.852;5.676;2023-06-22T13:22:31;21.20;99.90
24468;DHT22;12634;50.852;5.676;2023-06-22T13:25:00;21.10;99.90
24468;DHT22;12634;50.852;5.676;2023-06-22T13:27:27;20.90;99.90
24468;DHT22;12634;50.852;5.676;2023-06-22T13:29:56;20.80;99.90
24468;DHT22;12634;50.852;5.676;2023-06-22T13:32:23;20.70;99.90
24468;DHT22;12634;50.852;5.676;2023-06-22T13:34:51;20.70;99.90
24468;DHT22;12634;50.852;5.676;2023-06-22T13:37:19;20.60;99.90
24468;DHT22;12634;50.852;5.676;2023-06-22T13:39:46;20.60;99.90
24468;DHT22;12634;50.852;5.676;2023-06-22T13:42:13;20.60;99.90
24468;DHT22;12634;50.852;5.676;2023-06-22T13:44:40;20.50;99.90
24468;DHT22;12634;50.852;5.676;2023-06-22T13:47:09;20.50;99.90
24468;DHT22;12634;50.852;5.676;2023-06-22T13:49:36;20.40;99.90
24468;DHT22;12634;50.852;5.676;2023-06-22T13:52:04;20.40;99.90
24468;DHT22;12634;50.852;5.676;2023-06-22T13:54:35;20.30;99.90
24468;DHT22;12634;50.852;5.676;2023-06-22T13:57:03;20.20;99.90
24468;DHT22;12634;50.852;5.676;2023-06-22T13:59:30;20.10;99.90
24468;DHT22;12634;50.852;5.676;2023-06-22T14:01:58;20.00;99.90
24468;DHT22;12634;50.852;5.676;2023-06-22T14:04:26;20.00;99.90
24468;DHT22;12634;50.852;5.676;2023-06-22T14:06:54;19.80;99.90
24468;DHT22;12634;50.852;5.676;2023-06-22T14:09:22;20.00;99.90
24468;DHT22;12634;50.852;5.676;2023-06-22T14:11:50;19.80;99.90
24468;DHT22;12634;50.852;5.676;2023-06-22T14:14:17;19.90;99.90
24468;DHT22;12634;50.852;5.676;2023-06-22T14:16:44;19.80;99.90
24468;DHT22;12634;50.852;5.676;2023-06-22T14:19:11;19.90;99.90
24468;DHT22;12634;50.852;5.676;2023-06-22T14:21:40;19.80;99.90
24468;DHT22;12634;50.852;5.676;2023-06-22T14:24:07;20.00;99.90
24468;DHT22;12634;50.852;5.676;2023-06-22T14:26:34;19.80;99.90
24468;DHT22;12634;50.852;5.676;2023-06-22T14:29:02;19.90;99.90
24468;DHT22;12634;50.852;5.676;2023-06-22T14:31:29;19.70;99.90
24468;DHT22;12634;50.852;5.676;2023-06-22T14:33:56;19.80;99.90
24468;DHT22;12634;50.852;5.676;2023-06-22T14:36:24;19.60;99.90
24468;DHT22;12634;50.852;5.676;2023-06-22T14:38:52;19.70;99.90
24468;DHT22;12634;50.852;5.676;2023-06-22T14:41:19;19.70;99.90
24468;DHT22;12634;50.852;5.676;2023-06-22T14:43:47;19.70;99.90
24468;DHT22;12634;50.852;5.676;2023-06-22T14:46:15;19.60;99.90
24468;DHT22;12634;50.852;5.676;2023-06-22T14:48:43;19.50;99.90
24468;DHT22;12634;50.852;5.676;2023-06-22T14:51:11;19.60;99.90
24468;DHT22;12634;50.852;5.676;2023-06-22T14:53:38;19.60;99.90
24468;DHT22;12634;50.852;5.676;2023-06-22T14:56:07;19.50;99.90
24468;DHT22;12634;50.852;5.676;2023-06-22T14:58:34;19.60;99.90
24468;DHT22;12634;50.852;5.676;2023-06-22T15:01:02;19.60;99.90
24468;DHT22;12634;50.852;5.676;2023-06-22T15:03:30;19.50;99.90
24468;DHT22;12634;50.852;5.676;2023-06-22T15:05:58;19.50;99.90
24468;DHT22;12634;50.852;5.676;2023-06-22T15:08:25;19.50;99.90
24468;DHT22;12634;50.852;5.676;2023-06-22T15:10:53;19.50;99.90
24468;DHT22;12634;50.852;5.676;2023-06-22T15:13:21;19.30;99.90
24468;DHT22;12634;50.852;5.676;2023-06-22T15:15:50;19.40;99.90
24468;DHT22;12634;50.852;5.676;2023-06-22T15:18:17;19.40;99.90
24468;DHT22;12634;50.852;5.676;2023-06-22T15:20:44;19.40;99.90
24468;DHT22;12634;50.852;5.676;2023-06-22T15:23:11;19.50;99.90
24468;DHT22;12634;50.852;5.676;2023-06-22T15:25:39;19.40;99.90
24468;DHT22;12634;50.852;5.676;2023-06-22T15:28:06;19.40;99.90
24468;DHT22;12634;50.852;5.676;2023-06-22T15:30:35;19.40;99.90
24468;DHT22;12634;50.852;5.676;2023-06-22T15:33:02;19.50;99.90
24468;DHT22;12634;50.852;5.676;2023-06-22T15:35:29;19.40;99.90